Time;durP1;ratioP1;P1;durP2;ratioP2;P2;SDS_P1;SDS_P2;PMS_P1;PMS_P2;Temp;Humidity;BMP_temperature;BMP_pressure;BME280_temperature;BME280_humidity;BME280_pressure;Samples;Min_cycle;Max_cycle;Signal;HPM_P1;HPM_P2
2022/09/04 00:00:12;;;;;;;24.88;12.48;;;;;;;;;;7330300;19;154228;-15
2022/09/04 00:02:56;;;;;;;27.55;12.32;;;;;;;;;;7330436;19;153874;-16
2022/09/04 00:05:34;;;;;;;20.23;11.73;;;;;;;;;;7330145;19;161967;-15
2022/09/04 00:08:26;;;;;;;23.30;12.20;;;;;;;;;;7328505;19;162411;-16
2022/09/04 00:11:06;;;;;;;21.20;11.70;;;;;;;;;;7330354;19;154093;-15
2022/09/04 00:13:41;;;;;;;20.13;10.57;;;;;;;;;;7328727;19;153651;-15
2022/09/04 00:16:18;;;;;;;23.33;10.93;;;;;;;;;;7330544;19;161745;-16
2022/09/04 00:18:58;;;;;;;22.15;11.57;;;;;;;;;;7329117;19;162665;-16
2022/09/04 00:21:36;;;;;;;24.33;11.15;;;;;;;;;;7330101;19;154129;-16
2022/09/04 00:24:14;;;;;;;24.05;12.13;;;;;;;;;;7330002;19;153793;-16
2022/09/04 00:26:56;;;;;;;22.90;10.73;;;;;;;;;;7329382;19;161823;-16
2022/09/04 00:29:37;;;;;;;21.33;10.80;;;;;;;;;;7328880;19;162625;-16
2022/09/04 00:32:18;;;;;;;22.42;9.82;;;;;;;;;;7327659;19;154309;-16
2022/09/04 00:35:12;;;;;;;22.65;10.80;;;;;;;;;;7329596;19;153592;-16
2022/09/04 00:37:48;;;;;;;20.85;10.00;;;;;;;;;;7329674;19;161752;-16
2022/09/04 00:40:28;;;;;;;20.98;10.50;;;;;;;;;;7329605;19;162279;-16
2022/09/04 00:43:36;;;;;;;15.53;10.00;;;;;;;;;;7330102;19;153869;-16
2022/09/04 00:46:36;;;;;;;20.02;10.43;;;;;;;;;;7328909;19;153626;-16
2022/09/04 00:49:35;;;;;;;15.85;8.55;;;;;;;;;;7336020;19;161887;-16
2022/09/04 00:52:19;;;;;;;23.27;10.50;;;;;;;;;;7335500;19;162639;-16
2022/09/04 00:55:09;;;;;;;19.52;8.52;;;;;;;;;;7336488;19;154056;-16
2022/09/04 00:58:00;;;;;;;24.48;10.48;;;;;;;;;;7334975;19;153642;-16
2022/09/04 01:00:34;;;;;;;19.20;9.95;;;;;;;;;;7336554;19;162168;-16
2022/09/04 01:03:23;;;;;;;19.33;9.73;;;;;;;;;;7334319;19;162532;-16
2022/09/04 01:06:17;;;;;;;16.58;9.70;;;;;;;;;;7336932;19;154415;-15
2022/09/04 01:09:24;;;;;;;18.63;9.05;;;;;;;;;;7336194;19;153549;-16
2022/09/04 01:12:10;;;;;;;17.20;9.88;;;;;;;;;;7334521;19;161921;-15
2022/09/04 01:14:48;;;;;;;19.35;9.43;;;;;;;;;;7336098;19;162346;-15
2022/09/04 01:17:33;;;;;;;21.80;10.65;;;;;;;;;;7336372;19;154162;-15
2022/09/04 01:20:13;;;;;;;18.27;9.25;;;;;;;;;;7335689;19;153708;-15
2022/09/04 01:23:03;;;;;;;20.17;9.55;;;;;;;;;;7335876;19;161807;-15
2022/09/04 01:26:10;;;;;;;17.83;9.35;;;;;;;;;;7335683;19;162661;-15
2022/09/04 01:28:57;;;;;;;18.80;9.85;;;;;;;;;;7335321;19;155963;-15
2022/09/04 01:31:38;;;;;;;15.65;9.20;;;;;;;;;;7335687;19;153612;-16
2022/09/04 01:34:24;;;;;;;19.50;10.27;;;;;;;;;;7334019;19;161875;-14
2022/09/04 01:37:02;;;;;;;16.00;9.88;;;;;;;;;;7334816;19;162638;-15
2022/09/04 01:39:37;;;;;;;15.88;8.98;;;;;;;;;;7335873;19;154165;-15
2022/09/04 01:42:18;;;;;;;16.98;9.25;;;;;;;;;;7335263;19;153693;-14
2022/09/04 01:44:50;;;;;;;18.52;9.77;;;;;;;;;;7334309;19;162090;-14
2022/09/04 01:47:29;;;;;;;20.52;9.50;;;;;;;;;;7333624;19;162598;-15
2022/09/04 01:50:05;;;;;;;18.38;9.18;;;;;;;;;;7335262;19;153808;-14
2022/09/04 01:52:53;;;;;;;16.85;8.85;;;;;;;;;;7334233;19;153597;-14
2022/09/04 01:55:30;;;;;;;16.83;9.30;;;;;;;;;;7334579;19;161925;-14
2022/09/04 01:58:17;;;;;;;17.85;9.75;;;;;;;;;;7331986;19;162562;-14
2022/09/04 02:00:59;;;;;;;16.67;9.23;;;;;;;;;;7333515;19;153930;-15
2022/09/04 02:03:40;;;;;;;18.52;9.77;;;;;;;;;;7334455;19;153819;-14
2022/09/04 02:06:21;;;;;;;19.60;8.25;;;;;;;;;;7334120;19;161965;-14
2022/09/04 02:09:10;;;;;;;17.27;9.00;;;;;;;;;;7334483;19;162312;-14
2022/09/04 02:11:52;;;;;;;15.77;8.90;;;;;;;;;;7335509;19;154248;-14
2022/09/04 02:14:36;;;;;;;18.05;9.75;;;;;;;;;;7331890;19;153618;-15
2022/09/04 02:17:13;;;;;;;18.70;9.18;;;;;;;;;;7334201;19;161974;-14
2022/09/04 02:20:00;;;;;;;15.45;9.10;;;;;;;;;;7333523;19;162396;-14
2022/09/04 02:22:43;;;;;;;17.15;8.95;;;;;;;;;;7333873;19;153999;-14
2022/09/04 02:25:27;;;;;;;15.18;8.77;;;;;;;;;;7334143;19;153738;-14
2022/09/04 02:28:09;;;;;;;18.27;8.55;;;;;;;;;;7332920;19;162008;-14
2022/09/04 02:30:51;;;;;;;16.88;9.23;;;;;;;;;;7333302;19;162587;-14
2022/09/04 02:33:30;;;;;;;15.35;8.98;;;;;;;;;;7332631;19;154285;-15
2022/09/04 02:36:07;;;;;;;15.20;8.05;;;;;;;;;;7334199;19;153495;-14
2022/09/04 02:38:46;;;;;;;17.67;8.82;;;;;;;;;;7332955;19;162367;-14
2022/09/04 02:41:22;;;;;;;15.55;8.93;;;;;;;;;;7333339;19;162347;-14
2022/09/04 02:44:06;;;;;;;16.65;8.63;;;;;;;;;;7333877;19;154096;-15
2022/09/04 02:46:54;;;;;;;16.02;9.05;;;;;;;;;;7333660;19;153820;-15
2022/09/04 02:49:34;;;;;;;16.65;9.02;;;;;;;;;;7332869;19;162052;-14
2022/09/04 02:52:19;;;;;;;16.10;8.32;;;;;;;;;;7332541;19;162121;-14
2022/09/04 02:55:02;;;;;;;14.80;8.20;;;;;;;;;;7330503;19;154156;-14
2022/09/04 02:57:41;;;;;;;;;;;;;;;;;;7331742;19;153547;-14
2022/09/04 03:00:18;;;;;;;16.63;9.00;;;;;;;;;;7333356;19;161799;-14
2022/09/04 03:02:59;;;;;;;15.13;9.20;;;;;;;;;;7331678;19;162361;-15
2022/09/04 03:05:35;;;;;;;14.30;8.02;;;;;;;;;;7332697;19;154162;-15
2022/09/04 03:08:14;;;;;;;14.50;8.63;;;;;;;;;;7332116;19;153536;-15
2022/09/04 03:10:49;;;;;;;16.08;7.70;;;;;;;;;;7331517;19;161868;-15
2022/09/04 03:13:29;;;;;;;14.38;8.10;;;;;;;;;;7330217;19;162437;-15
2022/09/04 03:16:08;;;;;;;15.05;8.60;;;;;;;;;;7332503;19;154167;-15
2022/09/04 03:19:05;;;;;;;16.45;9.00;;;;;;;;;;7331949;19;153550;-15
2022/09/04 03:21:43;;;;;;;14.25;7.55;;;;;;;;;;7331453;19;161844;-15
2022/09/04 03:24:20;;;;;;;14.30;8.15;;;;;;;;;;7331043;19;162384;-15
2022/09/04 03:26:54;;;;;;;13.95;8.05;;;;;;;;;;7332089;19;154005;-15
2022/09/04 03:29:35;;;;;;;15.88;8.45;;;;;;;;;;7331568;19;153762;-14
2022/09/04 03:32:16;;;;;;;18.95;8.60;;;;;;;;;;7331724;19;162149;-14
2022/09/04 03:35:00;;;;;;;12.32;7.65;;;;;;;;;;7328589;19;162398;-15
2022/09/04 03:37:54;;;;;;;14.32;8.50;;;;;;;;;;7331395;19;154024;-15
2022/09/04 03:40:41;;;;;;;11.23;7.28;;;;;;;;;;7331284;19;154861;-15
2022/09/04 03:43:30;;;;;;;13.93;8.30;;;;;;;;;;7330306;19;161805;-15
2022/09/04 03:46:13;;;;;;;13.38;8.57;;;;;;;;;;7331081;19;162429;-15
2022/09/04 03:48:55;;;;;;;13.48;7.95;;;;;;;;;;7331246;19;154167;-15
2022/09/04 03:51:40;;;;;;;14.87;8.37;;;;;;;;;;7330635;19;153653;-15
2022/09/04 03:54:24;;;;;;;12.45;7.50;;;;;;;;;;7328203;19;161930;-15
2022/09/04 03:57:09;;;;;;;16.42;8.35;;;;;;;;;;7329506;19;162235;-14
2022/09/04 03:59:58;;;;;;;14.98;7.90;;;;;;;;;;7332328;19;154023;-15
2022/09/04 04:02:42;;;;;;;14.43;7.75;;;;;;;;;;7327999;19;153561;-15
2022/09/04 04:05:28;;;;;;;13.35;8.00;;;;;;;;;;7327560;19;161786;-14
2022/09/04 04:08:34;;;;;;;14.15;8.20;;;;;;;;;;7327463;19;162290;-14
2022/09/04 04:11:30;;;;;;;11.70;8.18;;;;;;;;;;7327750;19;154259;-14
2022/09/04 04:14:26;;;;;;;13.48;7.18;;;;;;;;;;7327057;19;153559;-14
2022/09/04 04:17:09;;;;;;;14.35;7.63;;;;;;;;;;7327238;19;161779;-14
2022/09/04 04:20:04;;;;;;;13.23;7.15;;;;;;;;;;7327192;19;162458;-14
2022/09/04 04:22:52;;;;;;;15.85;7.80;;;;;;;;;;7329851;19;154108;-14
2022/09/04 04:25:49;;;;;;;13.18;7.68;;;;;;;;;;7334067;19;153544;-15
2022/09/04 04:28:33;;;;;;;14.05;7.60;;;;;;;;;;7333730;19;161935;-14
2022/09/04 04:31:18;;;;;;;12.55;7.57;;;;;;;;;;7333538;19;162355;-14
2022/09/04 04:33:59;;;;;;;12.32;7.53;;;;;;;;;;7333710;19;154043;-14
2022/09/04 04:36:44;;;;;;;13.27;7.32;;;;;;;;;;7333740;19;153552;-14
2022/09/04 04:39:25;;;;;;;13.35;7.35;;;;;;;;;;7333297;19;161908;-14
2022/09/04 04:42:10;;;;;;;13.55;7.68;;;;;;;;;;7333044;19;162581;-15
2022/09/04 04:48:19;;;;;;;13.82;7.82;;;;;;;;;;7333497;19;153510;-14
2022/09/04 04:51:00;;;;;;;11.48;7.07;;;;;;;;;;7331916;19;162174;-14
2022/09/04 04:53:35;;;;;;;12.52;7.60;;;;;;;;;;7332873;19;162420;-14
2022/09/04 04:56:12;;;;;;;13.68;7.70;;;;;;;;;;7330752;19;154093;-14
2022/09/04 04:58:57;;;;;;;11.75;6.57;;;;;;;;;;7333167;19;153537;-14
2022/09/04 05:01:43;;;;;;;10.55;6.10;;;;;;;;;;7332886;19;161599;-14
2022/09/04 05:04:24;;;;;;;14.65;6.78;;;;;;;;;;7332793;19;162405;-14
2022/09/04 05:07:01;;;;;;;11.18;6.18;;;;;;;;;;7333081;19;154071;-13
2022/09/04 05:09:41;;;;;;;8.90;5.50;;;;;;;;;;7333030;19;153571;-13
2022/09/04 05:12:22;;;;;;;10.82;6.07;;;;;;;;;;7332617;19;161935;-14
2022/09/04 05:15:01;;;;;;;10.68;4.95;;;;;;;;;;7331696;19;162416;-13
2022/09/04 05:17:44;;;;;;;12.77;5.60;;;;;;;;;;7333194;19;154419;-13
2022/09/04 05:20:38;;;;;;;10.77;5.22;;;;;;;;;;7332737;19;153697;-13
2022/09/04 05:23:28;;;;;;;10.88;4.93;;;;;;;;;;7331169;19;161861;-14
2022/09/04 05:26:09;;;;;;;8.32;4.57;;;;;;;;;;7330386;19;162444;-14
2022/09/04 05:28:52;;;;;;;10.82;4.65;;;;;;;;;;7332507;19;154069;-13
2022/09/04 05:31:38;;;;;;;10.02;5.18;;;;;;;;;;7332375;19;153614;-14
2022/09/04 05:34:17;;;;;;;10.73;5.43;;;;;;;;;;7331410;19;162013;-16
2022/09/04 05:37:00;;;;;;;7.95;4.47;;;;;;;;;;7331789;19;162745;-13
2022/09/04 05:39:33;;;;;;;9.73;5.57;;;;;;;;;;7330999;19;154301;-14
2022/09/04 05:42:21;;;;;;;7.53;4.50;;;;;;;;;;7332080;19;153980;-13
2022/09/04 05:45:00;;;;;;;17.50;5.15;;;;;;;;;;7331711;19;161823;-14
2022/09/04 05:47:42;;;;;;;10.07;4.35;;;;;;;;;;7331618;19;162307;-13
2022/09/04 05:50:48;;;;;;;8.93;4.25;;;;;;;;;;7331963;19;154226;-13
2022/09/04 05:53:49;;;;;;;9.13;4.65;;;;;;;;;;7331168;19;153537;-14
2022/09/04 05:56:44;;;;;;;8.75;4.55;;;;;;;;;;7329133;19;161988;-14
2022/09/04 05:59:44;;;;;;;6.78;4.25;;;;;;;;;;7331267;19;162404;-14
2022/09/04 06:02:45;;;;;;;7.90;4.45;;;;;;;;;;7331810;19;154055;-14
2022/09/04 06:05:36;;;;;;;6.90;4.50;;;;;;;;;;7330352;19;153864;-14
2022/09/04 06:08:17;;;;;;;7.10;4.40;;;;;;;;;;7331051;19;161580;-14
2022/09/04 06:10:56;;;;;;;7.97;4.90;;;;;;;;;;7331192;19;162371;-14
2022/09/04 06:13:48;;;;;;;7.22;4.63;;;;;;;;;;7331245;19;153975;-14
2022/09/04 06:16:41;;;;;;;7.83;4.50;;;;;;;;;;7329486;19;153802;-14
2022/09/04 06:19:36;;;;;;;6.72;4.32;;;;;;;;;;7330968;19;162010;-14
2022/09/04 06:22:26;;;;;;;6.10;4.10;;;;;;;;;;7329616;19;162492;-14
2022/09/04 06:25:15;;;;;;;5.80;4.28;;;;;;;;;;7331245;19;154071;-15
2022/09/04 06:28:13;;;;;;;6.75;4.10;;;;;;;;;;7331128;19;153520;-15
2022/09/04 06:30:51;;;;;;;11.00;4.57;;;;;;;;;;7328983;19;162433;-15
2022/09/04 06:33:41;;;;;;;5.93;3.60;;;;;;;;;;7330437;19;162376;-14
2022/09/04 06:36:31;;;;;;;5.13;3.22;;;;;;;;;;7331815;19;154444;-15
2022/09/04 06:39:27;;;;;;;6.43;4.03;;;;;;;;;;7330759;19;153549;-15
2022/09/04 06:42:11;;;;;;;8.90;4.07;;;;;;;;;;7330445;19;161771;-15
2022/09/04 06:44:56;;;;;;;7.95;4.22;;;;;;;;;;7327117;19;162517;-15
2022/09/04 06:47:39;;;;;;;7.47;4.32;;;;;;;;;;7330465;19;154046;-22
2022/09/04 06:50:22;;;;;;;7.20;4.30;;;;;;;;;;7330508;19;153487;-15
2022/09/04 06:53:07;;;;;;;6.10;3.50;;;;;;;;;;7330091;19;161797;-16
2022/09/04 06:55:55;;;;;;;8.32;4.20;;;;;;;;;;7329219;19;162521;-15
2022/09/04 06:58:47;;;;;;;7.25;3.78;;;;;;;;;;7330398;19;154060;-15
2022/09/04 07:01:28;;;;;;;7.53;4.55;;;;;;;;;;7330366;19;153616;-15
2022/09/04 07:04:13;;;;;;;8.70;4.47;;;;;;;;;;7329863;19;161918;-15
2022/09/04 07:07:00;;;;;;;9.82;4.97;;;;;;;;;;7329754;19;162418;-15
2022/09/04 07:09:37;;;;;;;10.00;5.03;;;;;;;;;;7330038;19;154079;-15
2022/09/04 07:12:26;;;;;;;6.97;4.50;;;;;;;;;;7329871;19;153508;-15
2022/09/04 07:15:55;;;;;;;9.30;4.85;;;;;;;;;;7329306;19;161968;-15
2022/09/04 07:19:00;;;;;;;15.50;5.22;;;;;;;;;;7329501;19;162649;-15
2022/09/04 07:21:40;;;;;;;6.70;5.28;;;;;;;;;;7328420;19;154120;-15
2022/09/04 07:24:34;;;;;;;6.53;4.53;;;;;;;;;;7329484;19;153753;-15
2022/09/04 07:27:14;;;;;;;13.68;4.68;;;;;;;;;;7329076;19;162160;-15
2022/09/04 07:29:55;;;;;;;7.05;4.65;;;;;;;;;;7328758;19;162566;-15
2022/09/04 07:32:32;;;;;;;9.10;4.55;;;;;;;;;;7329255;19;154204;-15
2022/09/04 07:35:10;;;;;;;6.68;4.43;;;;;;;;;;7329172;19;153526;-15
2022/09/04 07:37:55;;;;;;;7.88;4.45;;;;;;;;;;7325864;19;161828;-16
2022/09/04 07:40:34;;;;;;;8.17;4.17;;;;;;;;;;7328714;19;162703;-15
2022/09/04 07:43:11;;;;;;;8.18;4.13;;;;;;;;;;7328932;19;154380;-15
2022/09/04 07:45:50;;;;;;;8.10;4.60;;;;;;;;;;7330942;19;153538;-15
2022/09/04 07:48:28;;;;;;;6.35;4.38;;;;;;;;;;7328485;19;162021;-16
2022/09/04 07:51:09;;;;;;;11.73;4.50;;;;;;;;;;7328164;19;162484;-16
2022/09/04 07:54:00;;;;;;;8.15;4.57;;;;;;;;;;7328467;19;154019;-15
2022/09/04 07:56:44;;;;;;;6.30;4.07;;;;;;;;;;7329539;19;153512;-15
2022/09/04 07:59:40;;;;;;;10.38;4.25;;;;;;;;;;7334903;19;161990;-15
2022/09/04 08:02:30;;;;;;;9.00;4.50;;;;;;;;;;7334361;19;162444;-15
2022/09/04 08:05:22;;;;;;;7.30;4.20;;;;;;;;;;7335333;19;154393;-15
2022/09/04 08:08:30;;;;;;;7.50;4.03;;;;;;;;;;7333895;19;153463;-14
2022/09/04 08:11:24;;;;;;;7.55;4.20;;;;;;;;;;7335731;19;161773;-15
2022/09/04 08:14:15;;;;;;;7.00;4.65;;;;;;;;;;7335381;19;162414;-15
2022/09/04 08:17:19;;;;;;;8.82;4.38;;;;;;;;;;7336601;19;154153;-15
2022/09/04 08:20:04;;;;;;;10.35;4.05;;;;;;;;;;7332276;19;153699;-15
2022/09/04 08:22:48;;;;;;;6.00;4.03;;;;;;;;;;7336695;19;161927;-14
2022/09/04 08:25:29;;;;;;;8.43;4.10;;;;;;;;;;7337426;19;162414;-14
2022/09/04 08:28:23;;;;;;;7.53;4.10;;;;;;;;;;7335201;19;154196;-15
2022/09/04 08:31:02;;;;;;;7.38;3.90;;;;;;;;;;7337260;19;153530;-14
2022/09/04 08:33:58;;;;;;;6.70;3.85;;;;;;;;;;7337928;19;161930;-15
2022/09/04 08:36:51;;;;;;;6.50;3.95;;;;;;;;;;7335361;19;162338;-15
2022/09/04 08:39:35;;;;;;;6.90;3.53;;;;;;;;;;7336787;19;154211;-15
2022/09/04 08:42:49;;;;;;;7.88;3.92;;;;;;;;;;7335252;19;153539;-14
2022/09/04 08:45:31;;;;;;;;;;;;;;;;;;7337596;19;161992;-15
2022/09/04 08:48:32;;;;;;;6.97;3.90;;;;;;;;;;7334685;19;162720;-15
2022/09/04 08:51:35;;;;;;;6.78;3.75;;;;;;;;;;7336144;19;154057;-16
2022/09/04 08:54:36;;;;;;;6.87;3.80;;;;;;;;;;7335425;19;153538;-15
2022/09/04 08:57:41;;;;;;;6.40;3.45;;;;;;;;;;7334573;19;161947;-15
2022/09/04 09:00:16;;;;;;;6.18;3.38;;;;;;;;;;7332941;19;162437;-15
2022/09/04 09:03:19;;;;;;;11.60;3.83;;;;;;;;;;7336122;19;154127;-15
2022/09/04 09:06:29;;;;;;;5.13;3.22;;;;;;;;;;7333915;19;153464;-15
2022/09/04 09:09:41;;;;;;;8.68;3.83;;;;;;;;;;7331059;19;162004;-15
2022/09/04 09:12:52;;;;;;;5.30;3.65;;;;;;;;;;7334644;19;162438;-15
2022/09/04 09:15:50;;;;;;;6.28;3.47;;;;;;;;;;7333328;19;154182;-15
2022/09/04 09:18:38;;;;;;;7.40;3.55;;;;;;;;;;7332907;19;153764;-15
2022/09/04 09:21:12;;;;;;;5.00;3.80;;;;;;;;;;7334826;19;161634;-15
2022/09/04 09:24:10;;;;;;;6.05;3.55;;;;;;;;;;7333416;19;162590;-15
2022/09/04 09:26:58;;;;;;;7.88;3.88;;;;;;;;;;7335191;19;154011;-15
2022/09/04 09:29:51;;;;;;;9.20;4.05;;;;;;;;;;7332770;19;153725;-15
2022/09/04 09:33:02;;;;;;;3.87;3.17;;;;;;;;;;7333071;19;161810;-15
2022/09/04 09:36:18;;;;;;;7.18;3.55;;;;;;;;;;7332201;19;162091;-15
2022/09/04 09:39:16;;;;;;;4.93;3.53;;;;;;;;;;7332907;19;153837;-16
2022/09/04 09:42:17;;;;;;;4.65;3.35;;;;;;;;;;7334276;19;153550;-15
2022/09/04 09:45:11;;;;;;;6.05;3.78;;;;;;;;;;7334971;19;161867;-15
2022/09/04 09:48:32;;;;;;;5.20;3.17;;;;;;;;;;7332729;19;162226;-15
2022/09/04 09:51:34;;;;;;;4.50;3.50;;;;;;;;;;7329709;19;154240;-15
2022/09/04 09:54:31;;;;;;;4.68;2.83;;;;;;;;;;7334304;19;153622;-15
2022/09/04 09:57:41;;;;;;;3.72;3.17;;;;;;;;;;7333814;19;161863;-15
2022/09/04 10:00:20;;;;;;;4.25;3.28;;;;;;;;;;7333685;19;162359;-15
2022/09/04 10:03:16;;;;;;;3.97;3.05;;;;;;;;;;7333654;19;154312;-15
2022/09/04 10:06:28;;;;;;;8.07;3.47;;;;;;;;;;7333144;19;153604;-16
2022/09/04 10:09:44;;;;;;;9.32;3.50;;;;;;;;;;7334406;19;161872;-16
2022/09/04 10:12:45;;;;;;;9.75;3.53;;;;;;;;;;7333277;19;162623;-16
2022/09/04 10:15:39;;;;;;;8.77;3.35;;;;;;;;;;7329945;19;154178;-16
2022/09/04 10:18:58;;;;;;;7.88;3.05;;;;;;;;;;7332381;19;153579;-16
2022/09/04 10:22:07;;;;;;;7.28;3.22;;;;;;;;;;7329755;19;162102;-16
2022/09/04 10:25:12;;;;;;;6.90;3.63;;;;;;;;;;7329346;19;162478;-16
2022/09/04 10:28:15;;;;;;;9.20;3.25;;;;;;;;;;7332407;19;154051;-14
2022/09/04 10:31:11;;;;;;;9.90;3.70;;;;;;;;;;7334401;19;154207;-15
2022/09/04 10:33:57;;;;;;;6.75;3.25;;;;;;;;;;7330384;19;162049;-15
2022/09/04 10:36:36;;;;;;;6.35;3.50;;;;;;;;;;7332586;19;162416;-15
2022/09/04 10:42:16;;;;;;;6.20;2.90;;;;;;;;;;7331861;19;153534;-15
2022/09/04 10:44:59;;;;;;;5.70;3.38;;;;;;;;;;7333486;19;161967;-15
2022/09/04 10:47:43;;;;;;;;;;;;;;;;;;7331508;19;162498;-14
2022/09/04 10:50:27;;;;;;;9.70;3.25;;;;;;;;;;7332899;19;154087;-14
2022/09/04 10:53:36;;;;;;;7.10;3.20;;;;;;;;;;7333495;19;153774;-14
2022/09/04 10:56:20;;;;;;;6.43;3.40;;;;;;;;;;7327607;19;161899;-15
2022/09/04 10:59:25;;;;;;;6.70;3.25;;;;;;;;;;7331661;19;162385;-15
2022/09/04 11:02:31;;;;;;;5.63;3.47;;;;;;;;;;7331903;19;154137;-15
2022/09/04 11:05:26;;;;;;;10.75;2.95;;;;;;;;;;7332950;19;153616;-15
2022/09/04 11:08:20;;;;;;;4.95;2.72;;;;;;;;;;7331219;19;161790;-15
2022/09/04 11:11:04;;;;;;;7.10;3.22;;;;;;;;;;7332775;19;162569;-16
2022/09/04 11:14:04;;;;;;;5.38;3.00;;;;;;;;;;7330865;19;154208;-15
2022/09/04 11:17:14;;;;;;;6.32;3.38;;;;;;;;;;7331182;19;153607;-16
2022/09/04 11:20:22;;;;;;;5.53;3.00;;;;;;;;;;7328128;19;161814;-15
2022/09/04 11:23:37;;;;;;;10.35;3.63;;;;;;;;;;7332619;19;162742;-15
2022/09/04 11:27:00;;;;;;;5.75;2.78;;;;;;;;;;7329716;19;154070;-14
2022/09/04 11:29:48;;;;;;;5.95;3.53;;;;;;;;;;7330379;19;153688;-14
2022/09/04 11:32:56;;;;;;;5.85;3.05;;;;;;;;;;7330392;19;162434;-15
2022/09/04 11:35:52;;;;;;;7.30;2.70;;;;;;;;;;7329458;19;162459;-16
2022/09/04 11:38:55;;;;;;;4.35;2.83;;;;;;;;;;7331118;19;154370;-15
2022/09/04 11:41:49;;;;;;;5.00;2.80;;;;;;;;;;7328027;19;153483;-15
2022/09/04 11:44:45;;;;;;;5.05;2.90;;;;;;;;;;7329042;19;162318;-15
2022/09/04 11:48:00;;;;;;;6.03;3.25;;;;;;;;;;7327306;19;162452;-15
2022/09/04 11:50:56;;;;;;;7.85;3.10;;;;;;;;;;7329310;19;154137;-16
2022/09/04 11:53:59;;;;;;;4.70;2.97;;;;;;;;;;7326257;19;153574;-16
2022/09/04 11:56:45;;;;;;;7.15;2.95;;;;;;;;;;7326199;19;162118;-15
2022/09/04 11:59:50;;;;;;;5.18;3.30;;;;;;;;;;7328893;19;163234;-15
2022/09/04 12:02:57;;;;;;;5.13;2.75;;;;;;;;;;7332125;19;154171;-16
2022/09/04 12:05:44;;;;;;;7.78;3.33;;;;;;;;;;7330454;19;153522;-15
2022/09/04 12:08:42;;;;;;;5.40;3.00;;;;;;;;;;7329809;19;161910;-15
2022/09/04 12:11:49;;;;;;;8.75;3.03;;;;;;;;;;7328507;19;162532;-15
2022/09/04 12:14:39;;;;;;;6.43;2.80;;;;;;;;;;7328056;19;154232;-15
2022/09/04 12:17:50;;;;;;;8.05;4.18;;;;;;;;;;7329373;19;153921;-15
2022/09/04 12:20:46;;;;;;;7.43;2.85;;;;;;;;;;7325183;19;161933;-15
2022/09/04 12:23:52;;;;;;;8.82;3.30;;;;;;;;;;7328342;19;162556;-13
2022/09/04 12:26:57;;;;;;;5.90;2.97;;;;;;;;;;7329102;19;154208;-14
2022/09/04 12:30:17;;;;;;;5.63;2.65;;;;;;;;;;7328455;19;153541;-14
2022/09/04 12:33:20;;;;;;;5.95;3.17;;;;;;;;;;7328898;19;162085;-14
2022/09/04 12:36:15;;;;;;;5.05;2.60;;;;;;;;;;7327180;19;162462;-16
2022/09/04 12:39:07;;;;;;;4.53;2.83;;;;;;;;;;7327612;19;154362;-14
2022/09/04 12:41:45;;;;;;;4.68;2.92;;;;;;;;;;7329167;19;153690;-14
2022/09/04 12:44:30;;;;;;;6.65;3.90;;;;;;;;;;7330850;19;162241;-14
2022/09/04 12:47:10;;;;;;;;;;;;;;;;;;7333851;19;162291;-14
2022/09/04 12:50:05;;;;;;;6.50;3.60;;;;;;;;;;7333882;19;154152;-14
2022/09/04 12:52:49;;;;;;;5.27;3.20;;;;;;;;;;7332467;19;153716;-15
2022/09/04 12:55:29;;;;;;;3.85;3.17;;;;;;;;;;7333360;19;161864;-14
2022/09/04 12:58:13;;;;;;;4.07;2.65;;;;;;;;;;7330906;19;162373;-15
2022/09/04 13:00:57;;;;;;;5.10;3.00;;;;;;;;;;7330527;19;154246;-15
2022/09/04 13:03:32;;;;;;;3.28;2.70;;;;;;;;;;7333441;19;153519;-14
2022/09/04 13:06:16;;;;;;;5.75;2.47;;;;;;;;;;7332769;19;161996;-15
2022/09/04 13:09:03;;;;;;;9.00;3.08;;;;;;;;;;7335007;19;162383;-14
2022/09/04 13:11:52;;;;;;;6.43;3.28;;;;;;;;;;7333227;19;154465;-16
2022/09/04 13:14:56;;;;;;;7.93;3.22;;;;;;;;;;7333322;19;153792;-15
2022/09/04 13:17:42;;;;;;;4.78;2.80;;;;;;;;;;7331623;19;162588;-15
2022/09/04 13:20:24;;;;;;;4.35;2.78;;;;;;;;;;7331483;19;162352;-13
2022/09/04 13:23:22;;;;;;;9.70;3.25;;;;;;;;;;7332141;19;154057;-15
2022/09/04 13:26:04;;;;;;;5.78;3.63;;;;;;;;;;7332883;19;153632;-14
2022/09/04 13:28:46;;;;;;;6.03;3.40;;;;;;;;;;7332054;19;161972;-14
2022/09/04 13:31:45;;;;;;;6.53;2.97;;;;;;;;;;7332041;19;162408;-14
2022/09/04 13:34:31;;;;;;;4.45;2.90;;;;;;;;;;7332314;19;154084;-14
2022/09/04 13:37:12;;;;;;;5.60;2.80;;;;;;;;;;7332401;19;153575;-14
2022/09/04 13:40:12;;;;;;;5.20;3.25;;;;;;;;;;7334078;19;161826;-14
2022/09/04 13:43:14;;;;;;;5.20;2.65;;;;;;;;;;7331493;19;162416;-14
2022/09/04 13:45:51;;;;;;;5.97;2.80;;;;;;;;;;7332091;19;154161;-14
2022/09/04 13:48:36;;;;;;;5.05;3.00;;;;;;;;;;7330680;19;154048;-15
2022/09/04 13:51:14;;;;;;;5.13;2.70;;;;;;;;;;7332144;19;161988;-15
2022/09/04 13:53:59;;;;;;;3.97;3.10;;;;;;;;;;7332851;19;162549;-20
2022/09/04 13:56:37;;;;;;;6.75;2.60;;;;;;;;;;7330904;19;154235;-15
2022/09/04 13:59:17;;;;;;;6.28;2.50;;;;;;;;;;7331715;19;153710;-15
2022/09/04 14:01:53;;;;;;;3.03;2.55;;;;;;;;;;7327506;19;162087;-18
2022/09/04 14:04:32;;;;;;;4.38;3.30;;;;;;;;;;7331275;19;162350;-15
2022/09/04 14:07:07;;;;;;;5.85;3.00;;;;;;;;;;7331787;19;154067;-15
2022/09/04 14:09:45;;;;;;;5.82;2.88;;;;;;;;;;7333947;19;153657;-16
2022/09/04 14:12:44;;;;;;;3.92;2.80;;;;;;;;;;7331112;19;161950;-15
2022/09/04 14:15:41;;;;;;;5.40;3.10;;;;;;;;;;7330753;19;162435;-15
2022/09/04 14:18:25;;;;;;;3.55;2.72;;;;;;;;;;7331608;19;154556;-16
2022/09/04 14:20:59;;;;;;;4.22;2.75;;;;;;;;;;7329814;19;153606;-15
2022/09/04 14:23:41;;;;;;;3.08;2.50;;;;;;;;;;7332056;19;161778;-14
2022/09/04 14:26:26;;;;;;;9.38;3.00;;;;;;;;;;7330646;19;162522;-15
2022/09/04 14:29:08;;;;;;;5.28;3.00;;;;;;;;;;7331022;19;154026;-15
2022/09/04 14:31:46;;;;;;;4.78;2.33;;;;;;;;;;7330690;19;153481;-14
2022/09/04 14:34:26;;;;;;;4.53;2.55;;;;;;;;;;7330254;19;161821;-15
2022/09/04 14:37:08;;;;;;;3.92;2.40;;;;;;;;;;7330121;19;162357;-14
2022/09/04 14:39:49;;;;;;;3.70;2.78;;;;;;;;;;7334450;19;154107;-14
2022/09/04 14:42:45;;;;;;;5.07;2.78;;;;;;;;;;7327496;19;153501;-14
2022/09/04 14:45:38;;;;;;;3.85;2.70;;;;;;;;;;7331530;19;162102;-15
2022/09/04 14:48:13;;;;;;;4.00;2.17;;;;;;;;;;7328937;19;162820;-15
2022/09/04 14:50:49;;;;;;;8.82;2.95;;;;;;;;;;7330386;19;154041;-15
2022/09/04 14:53:25;;;;;;;5.22;2.70;;;;;;;;;;7327993;19;153708;-15
2022/09/04 14:56:29;;;;;;;5.45;2.97;;;;;;;;;;7327094;19;162032;-15
2022/09/04 14:59:09;;;;;;;3.88;2.80;;;;;;;;;;7327734;19;162682;-15
2022/09/04 15:02:13;;;;;;;3.40;2.20;;;;;;;;;;7327841;19;154035;-15
2022/09/04 15:04:50;;;;;;;3.92;2.60;;;;;;;;;;7328873;19;153656;-14
2022/09/04 15:07:48;;;;;;;4.65;2.90;;;;;;;;;;7325187;19;162011;-18
2022/09/04 15:10:25;;;;;;;3.38;2.45;;;;;;;;;;7328659;19;162764;-15
2022/09/04 15:13:33;;;;;;;4.95;2.60;;;;;;;;;;7329935;19;154031;-16
2022/09/04 15:16:15;;;;;;;3.58;2.90;;;;;;;;;;7329463;19;153539;-15
2022/09/04 15:19:03;;;;;;;8.13;3.25;;;;;;;;;;7328822;19;162037;-15
2022/09/04 15:21:46;;;;;;;3.78;2.58;;;;;;;;;;7327488;19;162400;-16
2022/09/04 15:24:25;;;;;;;4.90;2.53;;;;;;;;;;7331006;19;154481;-15
2022/09/04 15:27:04;;;;;;;4.28;3.05;;;;;;;;;;7329249;19;153569;-15
2022/09/04 15:29:49;;;;;;;4.57;2.83;;;;;;;;;;7328783;19;162092;-15
2022/09/04 15:32:23;;;;;;;4.68;3.10;;;;;;;;;;7328609;19;162429;-15
2022/09/04 15:35:09;;;;;;;6.35;2.80;;;;;;;;;;7329280;19;154198;-15
2022/09/04 15:37:40;;;;;;;3.03;2.72;;;;;;;;;;7329031;19;154016;-15
2022/09/04 15:40:15;;;;;;;5.78;2.95;;;;;;;;;;7328366;19;161900;-15
2022/09/04 15:42:48;;;;;;;4.28;2.50;;;;;;;;;;7324718;19;162568;-14
2022/09/04 15:45:24;;;;;;;7.18;2.90;;;;;;;;;;7305165;19;154064;-14
2022/09/04 15:48:11;;;;;;;4.35;2.50;;;;;;;;;;7166214;19;166131;-15
2022/09/04 15:50:57;;;;;;;4.90;2.70;;;;;;;;;;7328009;19;161871;-15
2022/09/04 15:53:34;;;;;;;2.92;2.60;;;;;;;;;;7324951;19;163031;-15
2022/09/04 15:56:29;;;;;;;3.47;2.60;;;;;;;;;;7327733;19;154149;-15
2022/09/04 15:59:07;;;;;;;4.18;2.88;;;;;;;;;;7328080;19;153535;-14
2022/09/04 16:01:48;;;;;;;4.13;3.13;;;;;;;;;;7326769;19;161851;-15
2022/09/04 16:04:27;;;;;;;4.20;2.83;;;;;;;;;;7325553;19;162558;-15
2022/09/04 16:07:19;;;;;;;4.97;3.03;;;;;;;;;;7326599;19;154235;-13
2022/09/04 16:09:55;;;;;;;8.18;2.58;;;;;;;;;;7327840;19;153733;-13
2022/09/04 16:12:29;;;;;;;3.65;2.33;;;;;;;;;;7323955;19;161786;-13
2022/09/04 16:15:07;;;;;;;5.13;2.35;;;;;;;;;;7315782;19;162648;-13
2022/09/04 16:17:46;;;;;;;5.82;2.72;;;;;;;;;;7309450;19;154028;-13
2022/09/04 16:20:22;;;;;;;;;;;;;;;;;;6390859;19;3163827;-14
2022/09/04 16:23:00;;;;;;;5.07;2.63;;;;;;;;;;7327104;19;162039;-13
2022/09/04 16:25:33;;;;;;;7.25;2.92;;;;;;;;;;7327340;19;162362;-13
2022/09/04 16:28:08;;;;;;;5.72;2.33;;;;;;;;;;7334246;19;154200;-13
2022/09/04 16:30:45;;;;;;;3.13;2.20;;;;;;;;;;7284449;19;153577;-13
2022/09/04 16:33:25;;;;;;;6.03;2.92;;;;;;;;;;7303160;19;168021;-13